createdAt,value
2022-08-14T00:02:04.520Z,16.90
2022-08-14T00:04:41.909Z,16.90
2022-08-14T00:07:13.895Z,16.90
2022-08-14T00:10:01.988Z,16.90
2022-08-14T00:12:39.220Z,16.90
2022-08-14T00:15:29.901Z,16.90
2022-08-14T00:18:06.853Z,16.90
2022-08-14T00:20:41.280Z,16.80
2022-08-14T00:23:16.874Z,16.90
2022-08-14T00:25:53.683Z,16.90
2022-08-14T00:28:32.461Z,16.90
2022-08-14T00:31:00.145Z,16.90
2022-08-14T00:33:50.430Z,16.80
2022-08-14T00:36:36.865Z,16.80
2022-08-14T00:39:06.449Z,16.80
2022-08-14T00:41:34.005Z,16.80
2022-08-14T00:44:01.454Z,16.80
2022-08-14T00:46:32.538Z,16.80
2022-08-14T00:49:00.893Z,16.80
2022-08-14T00:51:37.838Z,16.70
2022-08-14T00:54:16.918Z,16.70
2022-08-14T00:56:55.435Z,16.60
2022-08-14T00:59:28.552Z,16.60
2022-08-14T01:02:00.206Z,16.60
2022-08-14T01:04:37.822Z,16.60
2022-08-14T01:07:21.729Z,16.50
2022-08-14T01:09:58.823Z,16.60
2022-08-14T01:12:29.794Z,16.50
2022-08-14T01:15:02.324Z,16.40
2022-08-14T01:17:52.139Z,16.30
2022-08-14T01:20:41.246Z,16.30
2022-08-14T01:23:16.432Z,16.30
2022-08-14T01:25:49.057Z,16.20
2022-08-14T01:28:47.046Z,16.10
2022-08-14T01:31:16.585Z,16.00
2022-08-14T01:35:15.566Z,16.00
2022-08-14T01:36:39.436Z,15.90
2022-08-14T01:39:13.084Z,15.90
2022-08-14T01:41:42.756Z,15.80
2022-08-14T01:44:32.281Z,15.80
2022-08-14T01:47:12.288Z,15.70
2022-08-14T01:49:59.447Z,15.70
2022-08-14T01:52:59.009Z,15.70
2022-08-14T01:55:23.539Z,15.70
2022-08-14T01:58:18.897Z,15.60
2022-08-14T02:00:39.283Z,15.50
2022-08-14T02:03:07.373Z,15.50
2022-08-14T02:05:38.674Z,15.40
2022-08-14T02:08:08.959Z,15.50
2022-08-14T02:10:46.655Z,15.50
2022-08-14T02:13:16.820Z,15.40
2022-08-14T02:15:45.689Z,15.40
2022-08-14T02:18:15.556Z,15.40
2022-08-14T02:20:42.719Z,15.30
2022-08-14T02:23:09.732Z,15.30
2022-08-14T02:25:39.539Z,15.20
2022-08-14T02:28:23.308Z,15.20
2022-08-14T02:30:54.496Z,15.10
2022-08-14T02:33:22.583Z,15.10
2022-08-14T02:35:57.829Z,15.00
2022-08-14T02:38:34.333Z,15.00
2022-08-14T02:41:02.415Z,15.10
2022-08-14T02:43:46.444Z,15.10
2022-08-14T02:46:20.703Z,15.10
2022-08-14T02:49:03.203Z,15.00
2022-08-14T02:51:36.642Z,15.00
2022-08-14T02:54:09.751Z,14.90
2022-08-14T02:57:16.442Z,14.90
2022-08-14T02:59:33.698Z,14.90
2022-08-14T03:02:03.109Z,14.90
2022-08-14T03:04:30.801Z,14.80
2022-08-14T03:07:07.690Z,14.70
2022-08-14T03:09:41.798Z,14.70
2022-08-14T03:12:32.453Z,14.60
2022-08-14T03:15:03.721Z,14.60
2022-08-14T03:17:40.938Z,14.60
2022-08-14T03:20:22.515Z,14.50
2022-08-14T03:22:50.875Z,14.50
2022-08-14T03:25:18.240Z,14.40
2022-08-14T03:27:48.527Z,14.40
2022-08-14T03:30:25.142Z,14.20
2022-08-14T03:33:12.462Z,14.10
2022-08-14T03:35:59.825Z,14.20
2022-08-14T03:39:13.606Z,14.10
2022-08-14T03:41:24.333Z,14.00
2022-08-14T03:44:01.126Z,14.00
2022-08-14T03:46:54.647Z,13.90
2022-08-14T03:49:28.877Z,13.90
2022-08-14T03:52:00.637Z,13.90
2022-08-14T03:54:29.207Z,14.00
2022-08-14T03:57:02.532Z,14.00
2022-08-14T03:59:32.786Z,14.00
2022-08-14T04:02:02.320Z,14.00
2022-08-14T04:04:33.565Z,14.00
2022-08-14T04:07:01.015Z,14.00
2022-08-14T04:09:29.314Z,13.90
2022-08-14T04:11:58.045Z,13.90
2022-08-14T04:14:28.988Z,13.90
2022-08-14T04:16:56.364Z,13.90
2022-08-14T04:19:23.980Z,13.70
2022-08-14T04:22:02.040Z,13.70
2022-08-14T04:24:39.161Z,13.80
2022-08-14T04:27:09.716Z,13.80
2022-08-14T04:29:42.553Z,13.80
2022-08-14T04:32:58.021Z,13.80
2022-08-14T04:34:58.460Z,13.90
2022-08-14T04:37:45.084Z,13.90
2022-08-14T04:40:35.339Z,13.90
2022-08-14T04:43:25.925Z,13.90
2022-08-14T04:45:53.008Z,14.00
2022-08-14T04:48:39.672Z,14.00
2022-08-14T04:51:14.104Z,14.00
2022-08-14T04:53:44.731Z,14.20
2022-08-14T04:56:30.489Z,14.30
2022-08-14T04:59:10.666Z,14.30
2022-08-14T05:01:45.134Z,14.40
2022-08-14T05:04:19.954Z,14.50
2022-08-14T05:06:53.504Z,14.70
2022-08-14T05:09:29.214Z,14.80
2022-08-14T05:13:08.301Z,15.00
2022-08-14T05:14:53.383Z,15.20
2022-08-14T05:17:25.416Z,15.70
2022-08-14T05:21:04.169Z,15.90
2022-08-14T05:22:45.987Z,16.20
2022-08-14T05:25:12.833Z,16.50
2022-08-14T05:27:42.095Z,16.80
2022-08-14T05:30:09.908Z,17.00
2022-08-14T05:32:37.057Z,17.30
2022-08-14T05:35:04.774Z,17.60
2022-08-14T05:37:32.048Z,17.80
2022-08-14T05:40:00.617Z,18.10
2022-08-14T05:42:31.751Z,18.50
2022-08-14T05:44:59.871Z,18.80
2022-08-14T05:47:29.150Z,19.20
2022-08-14T05:50:17.099Z,19.50
2022-08-14T05:52:46.443Z,19.70
2022-08-14T05:55:13.603Z,20.00
2022-08-14T05:57:57.853Z,20.30
2022-08-14T06:00:36.914Z,20.70
2022-08-14T06:03:19.701Z,21.00
2022-08-14T06:05:51.954Z,21.30
2022-08-14T06:08:36.701Z,21.60
2022-08-14T06:11:10.088Z,21.70
2022-08-14T06:13:45.828Z,22.00
2022-08-14T06:16:17.785Z,22.20
2022-08-14T06:18:52.693Z,22.40
2022-08-14T06:21:22.621Z,22.60
2022-08-14T06:23:50.149Z,22.90
2022-08-14T06:26:22.070Z,23.10
2022-08-14T06:28:51.771Z,23.20
2022-08-14T06:31:20.806Z,23.20
2022-08-14T06:35:10.433Z,23.20
2022-08-14T06:36:36.617Z,23.10
2022-08-14T06:39:04.098Z,23.10
2022-08-14T06:41:59.466Z,23.00
2022-08-14T06:44:22.032Z,23.00
2022-08-14T06:46:57.941Z,23.20
2022-08-14T06:49:27.206Z,23.20
2022-08-14T06:51:54.316Z,23.50
2022-08-14T06:54:21.293Z,23.80
2022-08-14T06:56:54.335Z,24.20
2022-08-14T06:59:23.840Z,24.40
2022-08-14T07:02:13.130Z,24.40
2022-08-14T07:04:59.232Z,24.40
2022-08-14T07:07:28.746Z,24.40
2022-08-14T07:09:55.712Z,24.40
2022-08-14T07:12:54.186Z,24.40
2022-08-14T07:15:11.037Z,24.40
2022-08-14T07:17:52.301Z,24.30
2022-08-14T07:20:31.242Z,24.30
2022-08-14T07:23:08.579Z,24.30
2022-08-14T07:25:42.301Z,24.40
2022-08-14T07:28:20.736Z,24.90
2022-08-14T07:30:51.271Z,25.50
2022-08-14T07:33:24.821Z,26.20
2022-08-14T07:36:00.255Z,26.80
2022-08-14T07:38:34.017Z,27.20
2022-08-14T07:41:06.843Z,27.40
2022-08-14T07:43:44.046Z,27.70
2022-08-14T07:46:15.522Z,27.90
2022-08-14T07:48:48.421Z,28.20
2022-08-14T07:51:15.353Z,28.40
2022-08-14T07:53:42.328Z,28.40
2022-08-14T07:56:44.446Z,28.20
2022-08-14T07:58:58.756Z,28.10
2022-08-14T08:01:29.975Z,27.90
2022-08-14T08:04:01.329Z,27.80
2022-08-14T08:06:30.382Z,27.60
2022-08-14T08:09:03.027Z,27.40
2022-08-14T08:11:37.309Z,27.10
2022-08-14T08:14:10.871Z,27.00
2022-08-14T08:16:47.400Z,26.90
2022-08-14T08:19:19.342Z,26.90
2022-08-14T08:21:47.140Z,26.90
2022-08-14T08:24:20.034Z,26.90
2022-08-14T08:26:50.242Z,26.90
2022-08-14T08:29:28.979Z,26.90
2022-08-14T08:32:01.961Z,26.90
2022-08-14T08:34:47.111Z,26.90
2022-08-14T08:37:15.200Z,26.80
2022-08-14T08:40:01.349Z,26.80
2022-08-14T08:42:31.381Z,26.80
2022-08-14T08:45:11.824Z,27.00
2022-08-14T08:47:40.693Z,27.30
2022-08-14T08:50:31.560Z,27.40
2022-08-14T08:53:07.230Z,27.50
2022-08-14T08:55:40.215Z,27.50
2022-08-14T08:58:19.861Z,27.30
2022-08-14T09:00:53.991Z,27.30
2022-08-14T09:03:27.963Z,27.50
2022-08-14T09:07:01.147Z,27.80
2022-08-14T09:08:52.687Z,28.00
2022-08-14T09:11:21.278Z,28.00
2022-08-14T09:13:53.921Z,27.90
2022-08-14T09:16:25.312Z,27.70
2022-08-14T09:18:54.056Z,27.60
2022-08-14T09:21:24.155Z,27.50
2022-08-14T09:24:29.353Z,27.40
2022-08-14T09:26:44.356Z,27.40
2022-08-14T09:29:17.613Z,27.40
2022-08-14T09:31:55.216Z,27.50
2022-08-14T09:35:16.432Z,27.50
2022-08-14T09:38:15.426Z,27.50
2022-08-14T09:41:23.599Z,27.70
2022-08-14T09:44:06.699Z,27.80
2022-08-14T09:46:35.599Z,27.90
2022-08-14T09:49:06.627Z,28.00
2022-08-14T09:51:44.895Z,28.10
2022-08-14T09:54:23.234Z,28.10
2022-08-14T09:56:56.829Z,28.20
2022-08-14T09:59:27.955Z,28.40
2022-08-14T10:01:57.143Z,28.50
2022-08-14T10:04:33.432Z,28.70
2022-08-14T10:07:08.347Z,28.80
2022-08-14T10:09:59.589Z,28.90
2022-08-14T10:12:54.672Z,29.20
2022-08-14T10:15:27.811Z,29.40
2022-08-14T10:18:18.517Z,29.70
2022-08-14T10:21:01.620Z,29.80
2022-08-14T10:23:42.715Z,29.80
2022-08-14T10:26:22.404Z,29.80
2022-08-14T10:29:18.934Z,29.90
2022-08-14T10:31:44.758Z,29.90
2022-08-14T10:34:19.786Z,29.90
2022-08-14T10:37:05.629Z,30.00
2022-08-14T10:40:01.989Z,30.10
2022-08-14T10:42:41.020Z,30.00
2022-08-14T10:45:25.671Z,29.90
2022-08-14T10:48:07.654Z,29.90
2022-08-14T10:50:42.494Z,30.00
2022-08-14T10:53:09.638Z,30.20
2022-08-14T10:55:45.600Z,30.60
2022-08-14T10:58:14.875Z,30.80
2022-08-14T11:00:57.783Z,31.00
2022-08-14T11:03:35.893Z,31.30
2022-08-14T11:06:18.654Z,31.80
2022-08-14T11:08:47.840Z,32.00
2022-08-14T11:11:19.336Z,32.20
2022-08-14T11:13:46.589Z,32.60
2022-08-14T11:16:15.933Z,32.70
2022-08-14T11:18:51.319Z,32.80
2022-08-14T11:21:23.119Z,32.70
2022-08-14T11:23:53.806Z,32.60
2022-08-14T11:26:28.002Z,32.50
2022-08-14T11:29:00.151Z,32.40
2022-08-14T11:31:35.573Z,32.30
2022-08-14T11:34:06.151Z,32.10
2022-08-14T11:37:04.326Z,32.00
2022-08-14T11:39:40.746Z,32.00
2022-08-14T11:42:58.351Z,32.00
2022-08-14T11:45:11.407Z,32.20
2022-08-14T11:48:12.705Z,32.60
2022-08-14T11:50:37.529Z,32.20
2022-08-14T11:53:08.608Z,31.60
2022-08-14T11:55:39.718Z,31.40
2022-08-14T11:58:15.697Z,31.60
2022-08-14T12:00:55.304Z,31.60
2022-08-14T12:03:51.625Z,31.60
2022-08-14T12:06:28.982Z,31.30
2022-08-14T12:09:08.638Z,31.30
2022-08-14T12:11:43.497Z,31.50
2022-08-14T12:14:30.625Z,31.60
2022-08-14T12:17:12.259Z,31.70
2022-08-14T12:20:10.238Z,31.80
2022-08-14T12:22:49.414Z,31.90
2022-08-14T12:25:24.968Z,32.10
2022-08-14T12:28:01.165Z,32.20
2022-08-14T12:30:43.323Z,32.20
2022-08-14T12:33:31.120Z,31.90
2022-08-14T12:36:06.038Z,31.60
2022-08-14T12:38:43.706Z,31.70
2022-08-14T12:41:21.377Z,31.50
2022-08-14T12:43:59.710Z,31.60
2022-08-14T12:46:30.425Z,31.80
2022-08-14T12:49:02.394Z,31.90
2022-08-14T12:51:30.722Z,32.00
2022-08-14T12:54:00.073Z,31.90
2022-08-14T12:56:33.851Z,31.70
2022-08-14T12:59:03.485Z,31.40
2022-08-14T13:01:59.014Z,31.10
2022-08-14T13:04:21.744Z,31.20
2022-08-14T13:06:51.225Z,31.50
2022-08-14T13:09:19.771Z,31.80
2022-08-14T13:11:59.333Z,32.00
2022-08-14T13:14:43.861Z,32.40
2022-08-14T13:17:11.972Z,32.60
2022-08-14T13:19:40.933Z,32.70
2022-08-14T13:22:09.821Z,32.80
2022-08-14T13:24:48.369Z,33.00
2022-08-14T13:27:18.739Z,33.00
2022-08-14T13:29:47.921Z,32.80
2022-08-14T13:32:15.373Z,32.40
2022-08-14T13:34:45.586Z,31.90
2022-08-14T13:37:17.233Z,31.50
2022-08-14T13:39:53.728Z,31.20
2022-08-14T13:42:30.776Z,31.10
2022-08-14T13:45:04.480Z,30.90
2022-08-14T13:47:32.885Z,30.80
2022-08-14T13:50:05.367Z,30.60
2022-08-14T13:52:59.440Z,30.50
2022-08-14T13:55:30.093Z,30.40
2022-08-14T13:58:03.142Z,30.70
2022-08-14T14:00:51.621Z,31.10
2022-08-14T14:03:22.982Z,31.70
2022-08-14T14:05:54.849Z,32.10
2022-08-14T14:08:43.093Z,32.40
2022-08-14T14:11:11.342Z,32.60
2022-08-14T14:13:44.656Z,32.80
2022-08-14T14:16:15.298Z,32.70
2022-08-14T14:18:55.855Z,32.60
2022-08-14T14:21:28.968Z,32.80
2022-08-14T14:23:56.937Z,33.00
2022-08-14T14:26:24.893Z,33.10
2022-08-14T14:28:57.024Z,33.30
2022-08-14T14:31:30.332Z,33.30
2022-08-14T14:34:07.280Z,33.40
2022-08-14T14:36:52.664Z,33.40
2022-08-14T14:39:26.859Z,33.50
2022-08-14T14:41:58.117Z,33.40
2022-08-14T14:44:32.077Z,33.30
2022-08-14T14:46:59.545Z,33.30
2022-08-14T14:49:41.656Z,33.40
2022-08-14T14:52:16.871Z,33.70
2022-08-14T14:54:53.446Z,33.70
2022-08-14T14:57:21.107Z,33.40
2022-08-14T14:59:50.005Z,33.00
2022-08-14T15:02:36.683Z,32.90
2022-08-14T15:05:05.597Z,33.00
2022-08-14T15:07:32.500Z,33.30
2022-08-14T15:10:06.561Z,33.40
2022-08-14T15:12:57.601Z,33.60
2022-08-14T15:15:27.351Z,33.70
2022-08-14T15:17:54.951Z,33.80
2022-08-14T15:20:30.392Z,33.50
2022-08-14T15:23:11.966Z,33.20
2022-08-14T15:25:41.127Z,32.90
2022-08-14T15:28:11.479Z,33.00
2022-08-14T15:30:46.249Z,33.10
2022-08-14T15:34:33.332Z,33.20
2022-08-14T15:36:31.259Z,33.30
2022-08-14T15:38:59.079Z,33.50
2022-08-14T15:41:27.219Z,33.60
2022-08-14T15:44:18.914Z,33.70
2022-08-14T15:46:53.233Z,33.60
2022-08-14T15:49:20.241Z,33.40
2022-08-14T15:51:48.273Z,33.20
2022-08-14T15:54:18.265Z,32.80
2022-08-14T15:57:01.027Z,32.60
2022-08-14T15:59:48.221Z,32.50
2022-08-14T16:02:16.725Z,32.30
2022-08-14T16:04:45.880Z,32.00
2022-08-14T16:07:18.814Z,31.90
2022-08-14T16:10:01.316Z,31.90
2022-08-14T16:12:41.757Z,31.80
2022-08-14T16:15:16.907Z,31.40
2022-08-14T16:17:46.602Z,31.10
2022-08-14T16:20:41.641Z,30.90
2022-08-14T16:23:10.332Z,30.60
2022-08-14T16:25:42.252Z,30.40
2022-08-14T16:28:10.560Z,30.30
2022-08-14T16:30:55.086Z,30.30
2022-08-14T16:33:56.504Z,30.40
2022-08-14T16:36:30.311Z,30.40
2022-08-14T16:39:01.882Z,30.40
2022-08-14T16:41:29.370Z,30.40
2022-08-14T16:44:21.436Z,30.40
2022-08-14T16:46:57.553Z,30.30
2022-08-14T16:49:26.086Z,30.30
2022-08-14T16:52:26.232Z,30.20
2022-08-14T16:55:05.055Z,30.10
2022-08-14T16:57:34.107Z,30.10
2022-08-14T17:00:01.193Z,30.10
2022-08-14T17:02:35.569Z,30.00
2022-08-14T17:05:25.247Z,29.90
2022-08-14T17:08:28.332Z,29.80
2022-08-14T17:10:51.712Z,29.70
2022-08-14T17:13:47.473Z,29.60
2022-08-14T17:16:25.348Z,29.50
2022-08-14T17:19:01.518Z,29.50
2022-08-14T17:21:38.476Z,29.40
2022-08-14T17:24:55.738Z,29.30
2022-08-14T17:27:04.353Z,29.20
2022-08-14T17:29:55.941Z,29.00
2022-08-14T17:32:44.463Z,28.90
2022-08-14T17:35:57.527Z,28.80
2022-08-14T17:38:38.865Z,28.60
2022-08-14T17:41:32.763Z,28.40
2022-08-14T17:44:34.002Z,28.30
2022-08-14T17:47:14.564Z,28.20
2022-08-14T17:49:52.013Z,28.00
2022-08-14T17:52:34.852Z,27.90
2022-08-14T17:55:06.504Z,27.70
2022-08-14T17:57:41.015Z,27.50
2022-08-14T18:00:17.296Z,27.40
2022-08-14T18:02:51.170Z,27.10
2022-08-14T18:05:23.315Z,26.90
2022-08-14T18:08:32.424Z,26.60
2022-08-14T18:10:57.493Z,26.40
2022-08-14T18:13:50.275Z,26.10
2022-08-14T18:16:19.632Z,26.00
2022-08-14T18:18:49.328Z,25.80
2022-08-14T18:21:39.633Z,25.60
2022-08-14T18:24:04.114Z,25.30
2022-08-14T18:26:51.301Z,25.10
2022-08-14T18:29:32.035Z,24.80
2022-08-14T18:32:00.084Z,24.60
2022-08-14T18:34:38.119Z,24.40
2022-08-14T18:37:21.189Z,24.30
2022-08-14T18:40:03.445Z,24.20
2022-08-14T18:42:35.024Z,24.10
2022-08-14T18:45:12.225Z,24.00
2022-08-14T18:50:31.151Z,23.40
2022-08-14T18:53:11.066Z,23.10
2022-08-14T18:55:52.766Z,22.90
2022-08-14T18:58:31.423Z,22.80
2022-08-14T19:01:01.890Z,22.70
2022-08-14T19:03:36.836Z,22.60
2022-08-14T19:06:05.809Z,22.50
2022-08-14T19:08:50.396Z,22.40
2022-08-14T19:11:42.047Z,22.30
2022-08-14T19:14:14.496Z,22.20
2022-08-14T19:16:53.751Z,22.10
2022-08-14T19:19:24.038Z,22.00
2022-08-14T19:21:56.856Z,22.00
2022-08-14T19:24:43.662Z,21.70
2022-08-14T19:27:16.724Z,21.70
2022-08-14T19:29:47.795Z,21.50
2022-08-14T19:32:36.349Z,21.40
2022-08-14T19:35:50.005Z,21.40
2022-08-14T19:38:32.044Z,21.30
2022-08-14T19:41:01.528Z,21.30
2022-08-14T19:43:56.633Z,21.00
2022-08-14T19:46:37.901Z,20.90
2022-08-14T19:49:07.039Z,20.80
2022-08-14T19:51:48.783Z,20.80
2022-08-14T19:54:16.326Z,20.70
2022-08-14T19:56:45.933Z,20.70
2022-08-14T19:59:21.564Z,20.60
2022-08-14T20:01:54.697Z,20.40
2022-08-14T20:04:47.761Z,20.20
2022-08-14T20:07:59.419Z,20.00
2022-08-14T20:11:08.987Z,19.80
2022-08-14T20:13:32.569Z,19.70
2022-08-14T20:16:12.223Z,19.70
2022-08-14T20:18:51.649Z,19.70
2022-08-14T20:21:21.387Z,19.70
2022-08-14T20:23:49.466Z,19.70
2022-08-14T20:26:30.608Z,19.80
2022-08-14T20:29:04.965Z,19.80
2022-08-14T20:31:36.461Z,19.80
2022-08-14T20:34:18.720Z,19.80
2022-08-14T20:37:11.561Z,19.90
2022-08-14T20:39:54.334Z,19.80
2022-08-14T20:42:49.331Z,19.70
2022-08-14T20:45:19.723Z,19.60
2022-08-14T20:48:02.658Z,19.50
2022-08-14T20:50:36.766Z,19.50
2022-08-14T20:53:58.169Z,19.50
2022-08-14T20:56:28.339Z,19.60
2022-08-14T20:58:57.381Z,19.60
2022-08-14T21:01:24.206Z,19.50
2022-08-14T21:04:02.638Z,19.50
2022-08-14T21:07:22.863Z,19.50
2022-08-14T21:10:03.461Z,19.40
2022-08-14T21:12:34.361Z,19.40
2022-08-14T21:15:01.909Z,19.30
2022-08-14T21:17:30.074Z,19.20
2022-08-14T21:19:57.293Z,19.20
2022-08-14T21:22:26.796Z,19.00
2022-08-14T21:24:59.864Z,19.00
2022-08-14T21:27:37.316Z,18.80
2022-08-14T21:30:08.925Z,18.80
2022-08-14T21:32:47.023Z,18.80
2022-08-14T21:35:20.095Z,18.70
2022-08-14T21:37:52.551Z,18.70
2022-08-14T21:40:41.075Z,18.60
2022-08-14T21:43:18.277Z,18.50
2022-08-14T21:45:54.176Z,18.50
2022-08-14T21:48:29.981Z,18.40
2022-08-14T21:51:53.271Z,18.40
2022-08-14T21:53:58.991Z,18.40
2022-08-14T21:56:37.226Z,18.30
2022-08-14T21:59:11.609Z,18.30
2022-08-14T22:02:00.578Z,18.20
2022-08-14T22:04:40.338Z,18.20
2022-08-14T22:07:16.761Z,18.10
2022-08-14T22:09:45.309Z,18.10
2022-08-14T22:12:57.269Z,18.00
2022-08-14T22:15:14.785Z,18.00
2022-08-14T22:17:50.990Z,17.90
2022-08-14T22:20:20.467Z,17.80
2022-08-14T22:22:48.301Z,17.80
2022-08-14T22:25:32.870Z,17.80
2022-08-14T22:28:07.322Z,17.80
2022-08-14T22:30:37.705Z,17.60
2022-08-14T22:33:05.930Z,17.60
2022-08-14T22:35:37.505Z,17.50
2022-08-14T22:38:35.624Z,17.50
2022-08-14T22:41:18.013Z,17.60
2022-08-14T22:43:40.648Z,17.50
2022-08-14T22:46:15.009Z,17.50
2022-08-14T22:48:45.223Z,17.50
2022-08-14T22:51:16.108Z,17.40
2022-08-14T22:53:48.422Z,17.40
2022-08-14T22:56:20.500Z,17.40
2022-08-14T22:58:53.862Z,17.30
2022-08-14T23:01:46.142Z,17.20
2022-08-14T23:04:34.867Z,17.20
2022-08-14T23:07:21.863Z,17.20
2022-08-14T23:10:31.139Z,17.20
2022-08-14T23:12:54.730Z,17.20
2022-08-14T23:15:28.985Z,17.10
2022-08-14T23:17:58.235Z,17.20
2022-08-14T23:20:29.688Z,17.20
2022-08-14T23:22:57.820Z,17.20
2022-08-14T23:25:56.865Z,17.20
2022-08-14T23:28:34.473Z,17.30
2022-08-14T23:31:14.274Z,17.30
2022-08-14T23:33:45.899Z,17.30
2022-08-14T23:36:32.202Z,17.40
2022-08-14T23:39:07.310Z,17.40
2022-08-14T23:41:46.203Z,17.40
2022-08-14T23:44:23.513Z,17.50
2022-08-14T23:46:56.903Z,17.60
2022-08-14T23:49:26.062Z,17.60
2022-08-14T23:52:49.455Z,17.70
2022-08-14T23:54:49.320Z,17.70
2022-08-14T23:57:19.344Z,17.60
2022-08-14T23:59:54.215Z,17.60
